Time;durP1;ratioP1;P1;durP2;ratioP2;P2;SDS_P1;SDS_P2;PMS_P1;PMS_P2;Temp;Humidity;BMP_temperature;BMP_pressure;BME280_temperature;BME280_humidity;BME280_pressure;Samples;Min_cycle;Max_cycle;Signal;HPM_P1;HPM_P2
2024/01/07 00:00:03;;;;;;;1.80;1.23;;;6.20;42.30;;;;;;5011751;28;20874;-46
2024/01/07 00:02:30;;;;;;;7.50;4.95;;;6.10;42.30;;;;;;5012215;28;20405;-46
2024/01/07 00:04:57;;;;;;;2.67;2.38;;;6.00;42.40;;;;;;5012050;28;20178;-49
2024/01/07 00:07:23;;;;;;;2.78;2.53;;;6.00;42.70;;;;;;5011515;28;20188;-49
2024/01/07 00:09:49;;;;;;;3.87;1.87;;;6.00;42.80;;;;;;5017166;28;20273;-46
2024/01/07 00:12:15;;;;;;;2.45;1.95;;;6.10;42.80;;;;;;5030513;28;20224;-45
2024/01/07 00:14:40;;;;;;;15.13;4.60;;;6.00;42.50;;;;;;5011835;28;20181;-48
2024/01/07 00:17:06;;;;;;;4.53;2.10;;;6.10;42.40;;;;;;5010719;28;20500;-46
2024/01/07 00:19:32;;;;;;;4.50;4.10;;;6.00;42.00;;;;;;5011564;28;20202;-45
2024/01/07 00:21:58;;;;;;;2.50;1.70;;;6.00;41.90;;;;;;5011617;28;20198;-48
2024/01/07 00:24:25;;;;;;;3.63;1.67;;;6.00;41.70;;;;;;5011805;28;21043;-47
2024/01/07 00:26:51;;;;;;;1.38;0.90;;;5.90;41.70;;;;;;5011616;28;20414;-44
2024/01/07 00:29:17;;;;;;;4.93;3.43;;;5.90;42.60;;;;;;5012646;28;20210;-46
2024/01/07 00:31:43;;;;;;;18.03;4.27;;;5.90;41.90;;;;;;5031214;28;20412;-48
2024/01/07 00:34:08;;;;;;;3.10;2.90;;;5.90;41.80;;;;;;5031229;28;20193;-49
2024/01/07 00:36:34;;;;;;;5.10;4.60;;;5.90;42.00;;;;;;5031137;28;20428;-44
2024/01/07 00:39:00;;;;;;;2.47;1.80;;;5.90;42.20;;;;;;5030821;28;20224;-47
2024/01/07 00:41:26;;;;;;;2.20;2.00;;;5.90;42.00;;;;;;5031354;28;20210;-48
2024/01/07 00:43:52;;;;;;;1.87;1.57;;;5.90;42.00;;;;;;5031371;28;20273;-44
2024/01/07 00:46:18;;;;;;;8.05;5.25;;;5.90;42.00;;;;;;5031150;28;20423;-46
2024/01/07 00:48:43;;;;;;;2.30;1.17;;;5.90;41.60;;;;;;5032695;28;20178;-50
2024/01/07 00:51:09;;;;;;;13.10;2.50;;;5.90;41.60;;;;;;5034686;28;20420;-49
2024/01/07 00:53:35;;;;;;;3.60;3.30;;;5.90;41.50;;;;;;5034786;28;20240;-45
2024/01/07 00:56:01;;;;;;;6.00;2.00;;;5.80;41.10;;;;;;5027608;28;20236;-44
2024/01/07 00:58:26;;;;;;;2.90;2.70;;;5.80;41.50;;;;;;5015067;28;20687;-50
2024/01/07 01:00:53;;;;;;;3.20;2.93;;;5.80;41.50;;;;;;5014795;28;20699;-46
2024/01/07 01:03:20;;;;;;;2.38;2.17;;;5.70;41.50;;;;;;5024342;28;20420;-50
2024/01/07 01:05:45;;;;;;;3.33;1.45;;;5.70;41.80;;;;;;5034462;28;20170;-50
2024/01/07 01:08:11;;;;;;;2.20;1.60;;;5.70;42.00;;;;;;5034603;28;20715;-44
2024/01/07 01:10:37;;;;;;;10.60;4.40;;;5.70;41.90;;;;;;5034439;28;21033;-49
2024/01/07 01:13:03;;;;;;;3.35;2.00;;;5.80;41.80;;;;;;5034450;28;20182;-49
2024/01/07 01:15:29;;;;;;;2.20;1.83;;;5.80;41.90;;;;;;5034494;28;20214;-45
2024/01/07 01:17:55;;;;;;;2.53;1.60;;;5.80;41.80;;;;;;5034486;28;20449;-50
2024/01/07 01:20:20;;;;;;;2.30;1.00;;;5.80;41.70;;;;;;5033886;28;20595;-45
2024/01/07 01:22:46;;;;;;;3.07;2.23;;;5.80;41.40;;;;;;5034348;28;20496;-44
2024/01/07 01:25:12;;;;;;;2.60;2.25;;;5.80;41.20;;;;;;5034196;28;20182;-50
2024/01/07 01:27:38;;;;;;;12.68;2.92;;;5.80;40.90;;;;;;5034286;28;20166;-49
2024/01/07 01:30:04;;;;;;;1.30;1.20;;;5.80;40.90;;;;;;5033911;28;20194;-44
2024/01/07 01:32:29;;;;;;;3.10;1.25;;;5.80;41.20;;;;;;5016295;28;20670;-48
2024/01/07 01:34:55;;;;;;;3.20;3.00;;;5.80;40.80;;;;;;5033912;28;20187;-49
2024/01/07 01:37:21;;;;;;;5.20;4.70;;;5.70;41.00;;;;;;5034153;28;20185;-45
2024/01/07 01:39:47;;;;;;;3.80;2.27;;;5.60;41.30;;;;;;5033678;28;20575;-47
2024/01/07 01:42:13;;;;;;;2.75;2.55;;;5.70;41.40;;;;;;5033838;28;20190;-45
2024/01/07 01:44:39;;;;;;;3.27;2.97;;;5.70;41.40;;;;;;5034039;28;20185;-45
2024/01/07 01:47:07;;;;;;;3.50;2.53;;;5.60;41.40;;;;;;5033946;28;20401;-49
2024/01/07 01:49:32;;;;;;;5.53;3.03;;;5.70;41.10;;;;;;5033467;28;20228;-44
2024/01/07 01:51:58;;;;;;;1.60;1.33;;;5.70;40.90;;;;;;5033766;28;20209;-50
2024/01/07 01:54:24;;;;;;;5.38;1.80;;;5.60;41.00;;;;;;5033560;28;20178;-51
2024/01/07 01:56:51;;;;;;;2.33;2.20;;;5.50;41.40;;;;;;5033816;28;20231;-45
2024/01/07 01:59:18;;;;;;;1.88;1.77;;;5.50;41.50;;;;;;5033063;28;20429;-44
2024/01/07 02:01:44;;;;;;;4.22;3.78;;;5.50;41.40;;;;;;5033435;28;20206;-50
2024/01/07 02:04:11;;;;;;;1.20;1.10;;;5.40;41.90;;;;;;5033294;28;20186;-51
2024/01/07 02:06:37;;;;;;;4.20;1.70;;;5.40;41.70;;;;;;5015791;28;20990;-44
2024/01/07 02:09:03;;;;;;;3.40;3.10;;;5.40;41.40;;;;;;5033056;28;20615;-47
2024/01/07 02:11:29;;;;;;;6.53;3.60;;;5.40;41.50;;;;;;5022425;28;20852;-48
2024/01/07 02:13:54;;;;;;;7.40;4.73;;;5.40;41.50;;;;;;5013669;28;20182;-47
2024/01/07 02:16:20;;;;;;;0.90;0.57;;;5.40;41.70;;;;;;5013539;28;20225;-44
2024/01/07 02:18:46;;;;;;;0.90;0.60;;;5.30;42.00;;;;;;5013299;28;20183;-49
2024/01/07 02:21:15;;;;;;;5.60;3.07;;;5.40;41.60;;;;;;5013608;28;20896;-45
2024/01/07 02:23:41;;;;;;;2.88;2.67;;;5.40;41.80;;;;;;4995716;28;20429;-49
2024/01/07 02:26:06;;;;;;;1.73;1.53;;;5.40;41.40;;;;;;5013426;28;20178;-51
2024/01/07 02:28:33;;;;;;;3.13;2.88;;;5.40;41.60;;;;;;5016355;28;20444;-46
2024/01/07 02:30:59;;;;;;;2.15;1.70;;;5.40;41.90;;;;;;5032848;28;20660;-47
2024/01/07 02:33:25;;;;;;;2.15;1.85;;;5.40;41.90;;;;;;5032873;28;20206;-45
2024/01/07 02:35:51;;;;;;;5.73;4.70;;;5.40;41.40;;;;;;5032948;28;20217;-51
2024/01/07 02:38:17;;;;;;;2.40;2.17;;;5.40;41.50;;;;;;5032808;28;20174;-50
2024/01/07 02:40:42;;;;;;;4.23;2.77;;;5.40;41.20;;;;;;5032633;28;20460;-46
2024/01/07 02:43:08;;;;;;;4.75;1.95;;;5.40;40.80;;;;;;5032983;28;20240;-46
2024/01/07 02:45:34;;;;;;;4.70;3.20;;;5.30;41.10;;;;;;5032838;28;20166;-46
2024/01/07 02:48:00;;;;;;;1.47;1.37;;;5.40;41.40;;;;;;5032971;28;20416;-48
2024/01/07 02:50:25;;;;;;;4.20;2.40;;;5.40;40.60;;;;;;5032798;28;20614;-44
2024/01/07 02:52:51;;;;;;;1.67;1.30;;;5.40;40.80;;;;;;5032664;28;20631;-49
2024/01/07 02:55:17;;;;;;;8.00;2.60;;;5.40;41.10;;;;;;5032730;28;20178;-46
2024/01/07 02:57:43;;;;;;;5.63;4.45;;;5.40;41.10;;;;;;5032578;28;20529;-46
2024/01/07 03:00:09;;;;;;;12.10;2.87;;;5.40;40.80;;;;;;5024396;28;20288;-49
2024/01/07 03:02:35;;;;;;;2.47;1.27;;;5.40;40.80;;;;;;5012665;28;20170;-50
2024/01/07 03:05:00;;;;;;;3.73;2.27;;;5.40;40.60;;;;;;5012867;28;20180;-45
2024/01/07 03:07:26;;;;;;;1.70;1.47;;;5.40;40.50;;;;;;5021101;28;20185;-45
2024/01/07 03:09:52;;;;;;;2.30;1.40;;;5.40;40.30;;;;;;5012450;28;20549;-50
2024/01/07 03:12:18;;;;;;;3.63;2.20;;;5.40;40.40;;;;;;5012806;28;20183;-51
2024/01/07 03:14:44;;;;;;;1.90;1.27;;;5.30;40.10;;;;;;5032139;28;20180;-45
2024/01/07 03:17:14;;;;;;;3.30;2.05;;;5.30;40.00;;;;;;5032048;28;20452;-45
2024/01/07 03:19:40;;;;;;;3.67;2.80;;;5.20;40.00;;;;;;5004921;28;20267;-50
2024/01/07 03:22:07;;;;;;;5.53;1.33;;;5.20;39.40;;;;;;5012306;28;20680;-49
2024/01/07 03:24:33;;;;;;;1.00;0.88;;;5.20;40.20;;;;;;5012386;28;20549;-45
2024/01/07 03:26:59;;;;;;;1.38;0.82;;;5.20;40.00;;;;;;5012269;28;20187;-45
2024/01/07 03:29:25;;;;;;;2.00;1.80;;;5.20;40.10;;;;;;5013905;28;20202;-51
2024/01/07 03:31:52;;;;;;;1.43;1.33;;;5.20;39.70;;;;;;5018454;28;20178;-45
2024/01/07 03:34:18;;;;;;;5.05;2.80;;;5.20;39.80;;;;;;5012105;28;20193;-45
2024/01/07 03:36:44;;;;;;;8.98;1.52;;;5.20;39.70;;;;;;5016610;28;20711;-49
2024/01/07 03:39:10;;;;;;;1.57;0.93;;;5.10;39.80;;;;;;5031740;28;20296;-45
2024/01/07 03:41:35;;;;;;;3.58;2.47;;;5.10;39.50;;;;;;5020218;28;20197;-47
2024/01/07 03:44:02;;;;;;;1.48;1.10;;;5.10;39.50;;;;;;5012145;28;20230;-48
2024/01/07 03:46:27;;;;;;;3.65;3.13;;;5.10;39.30;;;;;;5012078;28;20194;-45
2024/01/07 03:48:53;;;;;;;8.17;5.10;;;5.10;39.60;;;;;;5010671;28;20222;-49
2024/01/07 03:51:19;;;;;;;0.97;0.87;;;5.00;39.40;;;;;;5011878;28;20591;-46
2024/01/07 03:53:44;;;;;;;1.83;1.33;;;5.00;39.00;;;;;;5012115;28;20179;-47
2024/01/07 03:56:10;;;;;;;3.77;2.30;;;5.00;39.20;;;;;;5012062;28;20274;-48
2024/01/07 03:58:36;;;;;;;3.17;1.70;;;5.00;39.50;;;;;;5011873;28;20557;-45
2024/01/07 04:01:02;;;;;;;2.35;1.40;;;5.00;39.50;;;;;;5011750;28;20802;-48
2024/01/07 04:03:28;;;;;;;2.03;1.27;;;5.00;39.50;;;;;;5012004;28;20198;-50
2024/01/07 04:05:53;;;;;;;2.80;1.33;;;5.00;39.50;;;;;;5011973;28;20175;-45
2024/01/07 04:08:19;;;;;;;1.27;1.17;;;5.10;39.40;;;;;;5011997;28;20209;-50
2024/01/07 04:10:45;;;;;;;3.17;1.97;;;5.10;39.50;;;;;;5011729;28;20195;-48
2024/01/07 04:13:10;;;;;;;1.45;1.35;;;5.10;39.70;;;;;;5011830;28;20269;-45
2024/01/07 04:15:36;;;;;;;2.67;2.47;;;5.10;39.50;;;;;;5011690;28;20178;-50
2024/01/07 04:18:03;;;;;;;1.00;0.70;;;5.10;39.40;;;;;;5011959;28;20186;-47
2024/01/07 04:20:30;;;;;;;1.20;1.10;;;5.10;39.60;;;;;;5011532;28;20461;-46
2024/01/07 04:22:56;;;;;;;2.00;1.80;;;5.10;39.10;;;;;;5013776;28;20211;-46
2024/01/07 04:25:23;;;;;;;1.00;0.82;;;5.10;39.10;;;;;;5015618;28;20232;-49
2024/01/07 04:27:48;;;;;;;1.63;1.33;;;5.10;39.30;;;;;;5015453;28;20637;-46
2024/01/07 04:30:14;;;;;;;5.90;1.13;;;5.00;39.50;;;;;;5015234;28;20205;-45
2024/01/07 04:32:40;;;;;;;3.73;3.17;;;5.00;39.50;;;;;;5015470;28;20181;-48
2024/01/07 04:35:06;;;;;;;2.13;1.92;;;5.00;39.40;;;;;;5015597;28;20657;-45
2024/01/07 04:37:33;;;;;;;1.10;0.63;;;5.10;39.40;;;;;;5015468;28;20179;-47
2024/01/07 04:39:59;;;;;;;0.90;0.60;;;5.00;38.90;;;;;;5014972;28;20214;-49
2024/01/07 04:42:25;;;;;;;2.53;2.33;;;5.00;39.00;;;;;;5014059;28;20730;-44
2024/01/07 04:44:50;;;;;;;1.00;0.83;;;5.00;39.20;;;;;;5015244;28;20418;-45
2024/01/07 04:47:30;;;;;;;8.50;2.47;;;5.00;39.40;;;;;;5015066;28;20406;-50
2024/01/07 04:49:56;;;;;;;1.33;0.90;;;5.00;39.20;;;;;;5020836;28;20567;-44
2024/01/07 04:52:23;;;;;;;7.10;3.55;;;5.00;39.10;;;;;;5034832;28;20232;-50
2024/01/07 04:54:51;;;;;;;0.90;0.50;;;5.00;39.20;;;;;;5034803;28;20225;-46
2024/01/07 04:57:16;;;;;;;0.90;0.40;;;5.00;38.80;;;;;;5034730;28;20204;-44
2024/01/07 04:59:42;;;;;;;1.50;1.37;;;5.00;38.70;;;;;;5034589;28;20540;-48
2024/01/07 05:02:08;;;;;;;1.60;1.07;;;4.90;39.50;;;;;;5034773;28;20252;-47
2024/01/07 05:04:35;;;;;;;3.55;2.03;;;4.90;39.00;;;;;;5034649;28;20656;-47
2024/01/07 05:07:01;;;;;;;2.08;1.45;;;5.00;39.00;;;;;;5034656;28;20177;-47
2024/01/07 05:09:26;;;;;;;9.75;3.85;;;4.90;38.70;;;;;;5034280;28;20197;-45
2024/01/07 05:11:52;;;;;;;1.10;0.90;;;4.90;39.30;;;;;;5034412;28;20183;-45
2024/01/07 05:14:18;;;;;;;1.00;0.82;;;4.90;39.10;;;;;;5034427;28;20909;-47
2024/01/07 05:16:44;;;;;;;1.53;0.70;;;4.90;39.00;;;;;;5034592;28;20274;-48
2024/01/07 05:19:10;;;;;;;1.38;1.15;;;4.90;38.60;;;;;;5008655;28;20611;-46
2024/01/07 05:21:35;;;;;;;2.80;1.03;;;4.90;38.90;;;;;;5014476;28;20194;-45
2024/01/07 05:24:01;;;;;;;1.30;1.13;;;4.90;39.00;;;;;;5014526;28;20179;-49
2024/01/07 05:26:27;;;;;;;1.00;0.60;;;4.90;38.90;;;;;;5014369;28;20652;-48
2024/01/07 05:28:52;;;;;;;2.80;1.73;;;5.00;38.70;;;;;;5014306;28;20954;-46
2024/01/07 05:31:19;;;;;;;3.07;2.77;;;4.90;38.50;;;;;;5014515;28;20232;-50
2024/01/07 05:33:45;;;;;;;1.77;1.38;;;4.90;38.60;;;;;;5013700;28;20187;-47
2024/01/07 05:36:11;;;;;;;10.20;1.00;;;4.90;38.70;;;;;;5022303;28;20181;-46
2024/01/07 05:38:37;;;;;;;1.42;1.05;;;4.90;38.80;;;;;;5033853;28;20198;-44
2024/01/07 05:41:03;;;;;;;9.68;3.88;;;5.00;38.80;;;;;;5033992;28;20253;-48
2024/01/07 05:43:29;;;;;;;1.47;0.93;;;5.00;38.70;;;;;;5033934;28;20178;-45
2024/01/07 05:45:55;;;;;;;7.60;1.57;;;5.00;38.70;;;;;;5034041;28;20975;-47
2024/01/07 05:48:23;;;;;;;3.13;2.83;;;5.00;38.60;;;;;;5033848;28;20178;-46
2024/01/07 05:50:49;;;;;;;2.75;1.45;;;5.00;38.10;;;;;;5033606;28;20197;-46
2024/01/07 05:53:16;;;;;;;1.75;0.60;;;4.90;38.40;;;;;;5033647;28;20660;-47
2024/01/07 05:55:41;;;;;;;1.30;1.17;;;4.90;38.40;;;;;;5033699;28;20178;-47
2024/01/07 05:58:07;;;;;;;0.90;0.70;;;4.80;38.20;;;;;;5033849;28;20178;-47
2024/01/07 06:00:33;;;;;;;1.97;1.80;;;4.80;38.20;;;;;;5033496;28;20575;-50
2024/01/07 06:02:59;;;;;;;1.23;1.13;;;4.80;38.50;;;;;;5033434;28;20547;-45
2024/01/07 06:05:24;;;;;;;2.30;1.20;;;4.80;38.30;;;;;;5033505;28;20405;-48
2024/01/07 06:07:50;;;;;;;3.43;2.50;;;4.70;37.90;;;;;;5033422;28;20863;-44
2024/01/07 06:10:16;;;;;;;1.27;1.17;;;4.70;37.80;;;;;;5033197;28;20293;-47
2024/01/07 06:12:42;;;;;;;3.03;1.60;;;4.60;38.20;;;;;;5033597;28;20217;-48
2024/01/07 06:15:08;;;;;;;2.30;2.10;;;4.60;37.90;;;;;;5018100;28;20178;-46
2024/01/07 06:17:34;;;;;;;1.00;0.73;;;4.50;38.00;;;;;;5024119;28;20413;-47
2024/01/07 06:19:59;;;;;;;0.80;0.40;;;4.50;38.20;;;;;;5032922;28;20205;-47
2024/01/07 06:22:25;;;;;;;1.20;0.80;;;4.50;38.10;;;;;;5032984;28;20189;-44
2024/01/07 06:24:51;;;;;;;1.77;1.07;;;4.50;38.20;;;;;;5033335;28;20501;-47
2024/01/07 06:27:16;;;;;;;1.50;1.07;;;4.50;38.10;;;;;;5033174;28;20296;-48
2024/01/07 06:29:42;;;;;;;2.07;1.63;;;4.50;38.40;;;;;;5032832;28;20689;-45
2024/01/07 06:32:09;;;;;;;1.70;1.20;;;4.50;38.60;;;;;;5033350;28;20181;-44
2024/01/07 06:34:35;;;;;;;1.42;1.05;;;4.50;38.10;;;;;;5033427;28;20301;-52
2024/01/07 06:37:01;;;;;;;2.80;1.23;;;4.50;38.20;;;;;;5033077;28;20262;-45
2024/01/07 06:39:27;;;;;;;4.63;2.95;;;4.50;38.70;;;;;;5032596;28;20841;-45
2024/01/07 06:41:53;;;;;;;0.83;0.37;;;4.50;38.40;;;;;;5033646;28;20564;-50
2024/01/07 06:44:19;;;;;;;0.80;0.30;;;4.50;37.90;;;;;;5024544;28;20424;-51
2024/01/07 06:46:45;;;;;;;0.80;0.40;;;4.40;37.70;;;;;;5012236;28;20254;-45
2024/01/07 06:49:11;;;;;;;1.07;0.60;;;4.40;37.60;;;;;;5013070;28;20194;-49
2024/01/07 06:51:38;;;;;;;1.00;0.43;;;4.40;37.90;;;;;;5013009;28;20410;-48
2024/01/07 06:54:04;;;;;;;0.80;0.40;;;4.40;37.80;;;;;;5013459;28;20261;-47
2024/01/07 06:56:29;;;;;;;1.00;0.73;;;4.30;37.70;;;;;;5013557;28;20289;-47
2024/01/07 06:58:55;;;;;;;0.80;0.20;;;4.30;38.00;;;;;;5018543;28;21149;-49
2024/01/07 07:01:23;;;;;;;2.53;2.28;;;4.30;38.10;;;;;;5032232;28;20247;-45
2024/01/07 07:03:49;;;;;;;0.90;0.68;;;4.30;37.50;;;;;;5032391;28;20640;-45
2024/01/07 07:06:15;;;;;;;0.90;0.60;;;4.30;37.50;;;;;;5032292;28;20575;-50
2024/01/07 07:08:41;;;;;;;2.88;1.15;;;4.30;37.40;;;;;;5020883;28;20277;-49
2024/01/07 07:11:06;;;;;;;1.13;0.70;;;4.30;37.50;;;;;;5012566;28;20201;-45
2024/01/07 07:13:32;;;;;;;0.90;0.67;;;4.30;37.10;;;;;;5031119;28;20605;-47
2024/01/07 07:15:59;;;;;;;1.00;0.70;;;4.30;37.20;;;;;;5032410;28;20590;-49
2024/01/07 07:18:24;;;;;;;1.00;0.55;;;4.20;36.80;;;;;;5022885;28;20178;-49
2024/01/07 07:20:51;;;;;;;1.10;0.70;;;4.20;37.30;;;;;;5012042;28;20224;-45
2024/01/07 07:23:17;;;;;;;1.30;1.15;;;4.10;37.20;;;;;;5012311;28;20179;-47
2024/01/07 07:25:43;;;;;;;0.95;0.68;;;4.20;36.80;;;;;;5012424;28;20730;-49
2024/01/07 07:28:08;;;;;;;0.80;0.30;;;4.20;36.80;;;;;;5012496;28;20175;-45
2024/01/07 07:30:34;;;;;;;0.80;0.30;;;4.20;37.10;;;;;;5012097;28;20434;-46
2024/01/07 07:33:00;;;;;;;0.97;0.43;;;4.20;36.80;;;;;;5012295;28;20607;-50
2024/01/07 07:35:25;;;;;;;0.80;0.30;;;4.20;36.50;;;;;;5012139;28;20189;-45
2024/01/07 07:37:51;;;;;;;2.30;1.77;;;4.10;36.70;;;;;;5017021;28;20221;-45
2024/01/07 07:40:17;;;;;;;0.80;0.23;;;4.10;37.00;;;;;;5031395;28;20587;-50
2024/01/07 07:42:43;;;;;;;2.67;0.77;;;4.10;37.10;;;;;;5032098;28;20639;-49
2024/01/07 07:45:09;;;;;;;5.68;1.13;;;4.10;37.00;;;;;;5031847;28;20416;-45
2024/01/07 07:47:35;;;;;;;0.80;0.30;;;4.10;36.90;;;;;;5029242;28;20208;-46
2024/01/07 07:50:02;;;;;;;3.30;0.80;;;4.10;37.10;;;;;;5011733;28;20685;-52
2024/01/07 07:52:28;;;;;;;0.80;0.30;;;4.20;37.20;;;;;;5029973;28;20184;-45
2024/01/07 07:54:54;;;;;;;0.80;0.40;;;4.20;36.70;;;;;;5031941;28;20570;-47
2024/01/07 07:57:21;;;;;;;19.00;1.10;;;4.20;36.90;;;;;;5032874;28;20189;-46
2024/01/07 07:59:50;;;;;;;1.02;0.40;;;4.20;37.00;;;;;;5035543;28;20201;-47
2024/01/07 08:02:16;;;;;;;0.80;0.20;;;4.20;37.50;;;;;;5035750;28;20201;-50
2024/01/07 08:04:42;;;;;;;1.10;0.57;;;4.20;36.70;;;;;;5024181;28;20183;-45
2024/01/07 08:07:09;;;;;;;0.80;0.40;;;4.20;36.70;;;;;;5031063;28;20648;-47
2024/01/07 08:09:37;;;;;;;0.90;0.52;;;4.10;36.80;;;;;;5035701;28;20532;-50
2024/01/07 08:12:04;;;;;;;0.90;0.50;;;4.20;36.00;;;;;;5035719;28;20189;-45
2024/01/07 08:14:31;;;;;;;0.80;0.28;;;4.10;35.90;;;;;;5035549;28;20259;-46
2024/01/07 08:16:57;;;;;;;0.82;0.38;;;4.10;35.80;;;;;;5035466;28;20205;-47
2024/01/07 08:19:23;;;;;;;1.03;0.40;;;4.10;36.10;;;;;;5035189;28;20230;-48
2024/01/07 08:21:48;;;;;;;3.63;0.77;;;4.10;36.70;;;;;;5035487;28;20197;-50
2024/01/07 08:24:14;;;;;;;0.90;0.50;;;4.10;36.50;;;;;;5035637;28;20177;-46
2024/01/07 08:26:40;;;;;;;0.80;0.30;;;4.20;36.50;;;;;;5035428;28;20524;-51
2024/01/07 08:29:06;;;;;;;1.43;0.87;;;4.20;36.00;;;;;;5035047;28;20196;-48
2024/01/07 08:31:32;;;;;;;1.17;0.73;;;4.20;36.10;;;;;;5035072;28;20648;-44
2024/01/07 08:33:58;;;;;;;0.80;0.32;;;4.10;36.00;;;;;;5035642;28;20686;-49
2024/01/07 08:36:24;;;;;;;0.93;0.38;;;4.10;36.10;;;;;;5035293;28;20197;-45
2024/01/07 08:38:50;;;;;;;0.80;0.30;;;4.20;36.00;;;;;;5034991;28;20280;-51
2024/01/07 08:41:16;;;;;;;1.00;0.70;;;4.10;36.30;;;;;;5035200;28;20536;-46
2024/01/07 08:43:42;;;;;;;1.00;0.70;;;4.20;36.30;;;;;;5034955;28;20405;-45
2024/01/07 08:46:08;;;;;;;0.80;0.33;;;4.20;36.00;;;;;;5034975;28;20544;-49
2024/01/07 08:48:33;;;;;;;0.80;0.20;;;4.20;35.40;;;;;;5034784;28;20656;-49
2024/01/07 08:51:00;;;;;;;2.00;1.50;;;4.10;35.80;;;;;;5034738;28;20332;-45
2024/01/07 08:53:25;;;;;;;0.85;0.45;;;4.10;35.80;;;;;;5034787;28;20416;-50
2024/01/07 08:55:51;;;;;;;1.05;0.73;;;4.10;36.20;;;;;;5034853;28;20200;-47
2024/01/07 08:58:17;;;;;;;5.53;0.70;;;4.10;36.20;;;;;;5034674;28;20192;-45
2024/01/07 09:00:43;;;;;;;1.07;0.60;;;4.20;35.90;;;;;;5034391;28;20281;-53
2024/01/07 09:03:10;;;;;;;1.42;0.85;;;4.20;35.60;;;;;;5035016;28;20232;-46
2024/01/07 09:05:36;;;;;;;0.90;0.52;;;4.20;35.60;;;;;;5034963;28;20178;-45
2024/01/07 09:08:02;;;;;;;1.05;0.68;;;4.20;35.20;;;;;;5034669;28;20184;-52
2024/01/07 09:10:28;;;;;;;1.30;0.77;;;4.10;35.40;;;;;;5033379;28;20205;-50
2024/01/07 09:12:53;;;;;;;1.20;0.50;;;4.10;35.40;;;;;;5034436;28;20405;-45
2024/01/07 09:15:20;;;;;;;0.80;0.20;;;4.10;35.10;;;;;;5034355;28;20212;-48
2024/01/07 09:17:47;;;;;;;0.80;0.30;;;4.00;35.40;;;;;;5030774;28;20273;-44
2024/01/07 09:20:13;;;;;;;0.95;0.55;;;4.10;35.80;;;;;;5014571;28;20253;-45
2024/01/07 09:22:39;;;;;;;1.20;1.02;;;4.10;35.70;;;;;;5014521;28;20178;-49
2024/01/07 09:25:06;;;;;;;1.60;1.00;;;4.10;35.90;;;;;;5014719;28;20185;-45
2024/01/07 09:27:33;;;;;;;0.80;0.50;;;4.20;35.70;;;;;;5014416;28;20178;-45
2024/01/07 09:29:59;;;;;;;2.20;2.05;;;4.20;35.80;;;;;;5014107;28;20693;-51
2024/01/07 09:32:25;;;;;;;1.50;1.33;;;4.20;35.20;;;;;;5014451;28;20245;-46
2024/01/07 09:34:51;;;;;;;0.80;0.22;;;4.20;35.70;;;;;;5014722;28;20179;-46
2024/01/07 09:37:17;;;;;;;2.80;0.93;;;4.30;35.90;;;;;;5014488;28;20214;-46
2024/01/07 09:39:44;;;;;;;2.58;1.27;;;4.30;35.20;;;;;;5013927;28;20827;-44
2024/01/07 09:42:17;;;;;;;1.20;0.70;;;4.30;35.30;;;;;;5014102;28;20206;-51
2024/01/07 09:44:44;;;;;;;1.83;0.85;;;4.30;35.80;;;;;;5014053;28;20322;-50
2024/01/07 09:47:14;;;;;;;1.00;0.82;;;4.30;35.50;;;;;;5014098;28;20198;-43
2024/01/07 09:49:40;;;;;;;0.80;0.50;;;4.30;35.30;;;;;;5014173;28;20564;-50
2024/01/07 09:52:08;;;;;;;0.80;0.30;;;4.40;35.40;;;;;;5028806;28;20215;-46
2024/01/07 09:54:38;;;;;;;0.80;0.40;;;4.30;35.20;;;;;;5033741;28;20173;-44
2024/01/07 09:57:06;;;;;;;0.80;0.28;;;4.30;35.10;;;;;;5033652;28;20181;-45
2024/01/07 09:59:32;;;;;;;7.53;1.65;;;4.30;35.30;;;;;;5031852;28;20317;-51
2024/01/07 10:01:59;;;;;;;2.35;1.52;;;4.30;34.80;;;;;;5013954;28;20328;-46
2024/01/07 10:04:26;;;;;;;1.15;1.05;;;4.30;35.00;;;;;;5013782;28;20185;-45
2024/01/07 10:06:53;;;;;;;6.30;2.00;;;4.30;34.90;;;;;;5014399;28;20167;-48
2024/01/07 10:09:21;;;;;;;0.82;0.43;;;4.20;34.90;;;;;;5014108;28;20209;-46
2024/01/07 10:11:47;;;;;;;2.03;1.73;;;4.20;34.90;;;;;;5013670;28;20183;-45
2024/01/07 10:14:13;;;;;;;0.80;0.30;;;4.20;34.60;;;;;;5014417;28;20187;-50
2024/01/07 10:16:39;;;;;;;3.03;1.23;;;4.20;34.30;;;;;;5014798;28;20187;-51
2024/01/07 10:19:07;;;;;;;0.80;0.30;;;4.20;34.40;;;;;;4995753;28;20990;-44
2024/01/07 10:21:33;;;;;;;0.80;0.20;;;4.10;34.50;;;;;;5016498;28;20198;-46
2024/01/07 10:24:13;;;;;;;0.80;0.30;;;4.10;34.80;;;;;;5033963;28;20162;-50
2024/01/07 10:26:42;;;;;;;0.90;0.73;;;4.10;34.60;;;;;;5030546;28;20231;-44
2024/01/07 10:29:08;;;;;;;0.80;0.50;;;4.10;34.50;;;;;;5023670;28;20247;-47
2024/01/07 10:31:34;;;;;;;0.80;0.30;;;4.00;34.20;;;;;;5032983;28;20232;-51
2024/01/07 10:34:00;;;;;;;1.00;0.68;;;4.00;34.20;;;;;;5027496;28;20687;-46
2024/01/07 10:36:26;;;;;;;0.80;0.30;;;4.00;34.20;;;;;;5013174;28;20197;-43
2024/01/07 10:38:54;;;;;;;0.80;0.30;;;4.00;34.30;;;;;;5012765;28;20189;-51
2024/01/07 10:41:20;;;;;;;0.80;0.30;;;4.00;34.40;;;;;;5021109;28;20467;-50
2024/01/07 10:43:49;;;;;;;0.80;0.50;;;4.00;34.80;;;;;;5032775;28;20289;-43
2024/01/07 10:46:16;;;;;;;3.00;0.75;;;4.00;34.00;;;;;;5032989;28;20182;-51
2024/01/07 10:48:55;;;;;;;0.80;0.30;;;4.00;34.40;;;;;;5021539;28;20181;-50
2024/01/07 10:51:22;;;;;;;0.90;0.50;;;4.00;34.30;;;;;;5021197;28;20189;-47
2024/01/07 10:53:55;;;;;;;0.80;0.30;;;4.10;33.80;;;;;;5032742;28;20178;-49
2024/01/07 10:56:25;;;;;;;1.23;1.05;;;4.00;33.90;;;;;;5032649;28;20193;-45
2024/01/07 10:58:54;;;;;;;12.25;0.70;;;4.00;32.90;;;;;;5019994;28;20545;-43
2024/01/07 11:01:21;;;;;;;0.77;0.32;;;4.00;33.40;;;;;;5012740;28;20202;-49
2024/01/07 11:04:01;;;;;;;1.35;0.93;;;3.90;33.40;;;;;;5012785;28;20540;-47
2024/01/07 11:06:50;;;;;;;0.90;0.55;;;4.00;33.90;;;;;;5013142;28;20174;-47
2024/01/07 11:09:26;;;;;;;0.90;0.50;;;4.00;33.20;;;;;;5028742;28;20279;-45
2024/01/07 11:11:52;;;;;;;0.90;0.60;;;3.90;33.40;;;;;;5032625;28;20173;-47
2024/01/07 11:14:40;;;;;;;1.10;0.40;;;3.90;33.40;;;;;;5032258;28;20180;-48
2024/01/07 11:17:06;;;;;;;1.00;0.40;;;3.90;33.20;;;;;;5032514;28;20264;-52
2024/01/07 11:19:32;;;;;;;1.45;1.05;;;3.90;33.00;;;;;;5013964;28;20194;-46
2024/01/07 11:22:27;;;;;;;2.00;1.23;;;3.80;32.60;;;;;;5011182;28;20202;-44
2024/01/07 11:25:00;;;;;;;0.80;0.20;;;3.90;33.10;;;;;;5009942;28;20178;-49
2024/01/07 11:27:32;;;;;;;0.82;0.45;;;3.90;32.80;;;;;;5012558;28;20518;-46
2024/01/07 11:30:05;;;;;;;0.80;0.20;;;3.90;33.20;;;;;;5017393;28;20198;-49
2024/01/07 11:32:32;;;;;;;0.90;0.60;;;4.00;32.20;;;;;;5015148;28;20236;-44
2024/01/07 11:34:59;;;;;;;2.45;0.90;;;4.00;32.40;;;;;;5031857;28;20188;-47
2024/01/07 11:37:25;;;;;;;2.28;2.17;;;4.00;32.90;;;;;;5032176;28;20651;-50
2024/01/07 11:39:56;;;;;;;0.80;0.30;;;4.10;31.70;;;;;;5031589;28;20217;-45
2024/01/07 11:42:24;;;;;;;1.80;1.70;;;4.10;32.10;;;;;;5031556;28;20206;-47
2024/01/07 11:44:55;;;;;;;1.20;0.95;;;4.20;32.20;;;;;;5012264;28;20332;-51
2024/01/07 11:47:22;;;;;;;0.80;0.30;;;4.20;31.50;;;;;;5012107;28;20193;-45
2024/01/07 11:49:51;;;;;;;0.80;0.20;;;4.20;31.50;;;;;;5011844;28;20526;-46
2024/01/07 11:52:17;;;;;;;1.45;0.90;;;4.20;32.10;;;;;;5019662;28;20316;-48
2024/01/07 11:54:43;;;;;;;0.90;0.40;;;4.20;31.50;;;;;;5031658;28;20185;-43
2024/01/07 11:57:10;;;;;;;0.80;0.33;;;4.10;31.40;;;;;;5017177;28;20183;-51
2024/01/07 11:59:37;;;;;;;0.80;0.30;;;4.10;31.80;;;;;;5011745;28;20523;-47
2024/01/07 12:02:06;;;;;;;0.80;0.40;;;4.10;31.60;;;;;;5011796;28;20206;-45
2024/01/07 12:04:32;;;;;;;1.15;0.98;;;4.10;31.20;;;;;;5012151;28;20198;-51
2024/01/07 12:06:58;;;;;;;0.80;0.30;;;4.10;31.30;;;;;;5011893;28;20179;-45
2024/01/07 12:09:25;;;;;;;0.82;0.45;;;4.10;31.80;;;;;;5011555;28;20688;-45
2024/01/07 12:11:51;;;;;;;0.90;0.40;;;4.10;31.90;;;;;;5012043;28;20183;-47
2024/01/07 12:14:19;;;;;;;0.80;0.30;;;4.10;32.20;;;;;;5011800;28;20849;-48
2024/01/07 12:16:45;;;;;;;1.25;0.50;;;4.20;31.60;;;;;;5011812;28;20190;-46
2024/01/07 12:19:11;;;;;;;0.80;0.30;;;4.20;32.20;;;;;;5011688;28;20257;-47
2024/01/07 12:21:38;;;;;;;0.80;0.30;;;4.10;31.40;;;;;;5011669;28;20564;-51
2024/01/07 12:24:04;;;;;;;0.80;0.50;;;4.10;31.60;;;;;;5025715;28;20201;-44
2024/01/07 12:26:32;;;;;;;1.10;0.60;;;4.10;32.00;;;;;;5031538;28;20561;-47
2024/01/07 12:29:00;;;;;;;1.58;0.65;;;4.10;32.20;;;;;;5031209;28;20198;-49
2024/01/07 12:31:31;;;;;;;0.80;0.30;;;4.10;32.30;;;;;;5031288;28;20251;-50
2024/01/07 12:33:57;;;;;;;0.80;0.30;;;4.10;31.90;;;;;;5031640;28;20205;-45
2024/01/07 12:36:23;;;;;;;1.45;1.35;;;4.10;31.40;;;;;;5031190;28;20182;-44
2024/01/07 12:38:53;;;;;;;5.18;2.17;;;4.00;32.00;;;;;;5030964;28;20256;-47
2024/01/07 12:41:20;;;;;;;0.80;0.30;;;4.00;31.80;;;;;;5031281;28;20209;-45
2024/01/07 12:43:45;;;;;;;0.90;0.52;;;4.00;32.10;;;;;;5015266;28;20170;-47
2024/01/07 12:46:11;;;;;;;1.37;0.80;;;4.00;31.90;;;;;;5035287;28;20542;-49
2024/01/07 12:48:37;;;;;;;0.80;0.20;;;4.00;32.20;;;;;;5035001;28;20177;-45
2024/01/07 12:51:03;;;;;;;0.80;0.40;;;4.00;32.70;;;;;;5034958;28;20681;-44
2024/01/07 12:53:28;;;;;;;1.87;0.90;;;4.00;32.80;;;;;;5034806;28;20182;-49